sensor_id;sensor_type;location;lat;lon;timestamp;pressure;altitude;pressure_sealevel;temperature;humidity
10060;BME280;5069;49.306;8.636;2022-09-01T00:00:08;100665.91;;;19.87;70.78
10060;BME280;5069;49.306;8.636;2022-09-01T00:03:11;100663.75;;;19.79;71.21
10060;BME280;5069;49.306;8.636;2022-09-01T00:06:14;100660.66;;;19.85;71.23
10060;BME280;5069;49.306;8.636;2022-09-01T00:09:18;100660.84;;;19.82;71.30
10060;BME280;5069;49.306;8.636;2022-09-01T00:12:19;100659.56;;;19.75;71.61
10060;BME280;5069;49.306;8.636;2022-09-01T00:15:23;100659.13;;;19.68;72.53
10060;BME280;5069;49.306;8.636;2022-09-01T00:18:24;100659.69;;;19.47;73.85
10060;BME280;5069;49.306;8.636;2022-09-01T00:21:40;100661.03;;;19.39;74.76
10060;BME280;5069;49.306;8.636;2022-09-01T00:24:42;100674.38;;;19.39;75.05
10060;BME280;5069;49.306;8.636;2022-09-01T00:27:43;100675.66;;;19.34;75.21
10060;BME280;5069;49.306;8.636;2022-09-01T00:30:45;100668.19;;;19.39;75.63
10060;BME280;5069;49.306;8.636;2022-09-01T00:33:47;100669.44;;;19.48;75.44
10060;BME280;5069;49.306;8.636;2022-09-01T00:36:48;100672.84;;;19.50;75.82
10060;BME280;5069;49.306;8.636;2022-09-01T00:39:50;100670.84;;;19.53;75.20
10060;BME280;5069;49.306;8.636;2022-09-01T00:42:52;100666.91;;;19.59;74.97
10060;BME280;5069;49.306;8.636;2022-09-01T00:45:54;100663.94;;;19.63;75.91
10060;BME280;5069;49.306;8.636;2022-09-01T00:49:02;100672.81;;;19.64;76.53
10060;BME280;5069;49.306;8.636;2022-09-01T00:52:09;100667.47;;;19.64;76.38
10060;BME280;5069;49.306;8.636;2022-09-01T00:55:17;100667.00;;;19.57;77.03
10060;BME280;5069;49.306;8.636;2022-09-01T00:58:22;100669.78;;;19.56;76.46
10060;BME280;5069;49.306;8.636;2022-09-01T01:01:23;100677.25;;;19.51;76.56
10060;BME280;5069;49.306;8.636;2022-09-01T01:04:25;100676.38;;;19.50;76.80
10060;BME280;5069;49.306;8.636;2022-09-01T01:07:27;100675.13;;;19.56;76.62
10060;BME280;5069;49.306;8.636;2022-09-01T01:10:31;100669.78;;;19.56;76.85
10060;BME280;5069;49.306;8.636;2022-09-01T01:14:09;100671.41;;;19.44;77.87
10060;BME280;5069;49.306;8.636;2022-09-01T01:17:18;100677.84;;;19.42;78.84
10060;BME280;5069;49.306;8.636;2022-09-01T01:20:24;100672.13;;;19.33;78.70
10060;BME280;5069;49.306;8.636;2022-09-01T01:27:10;100668.88;;;19.28;80.75
10060;BME280;5069;49.306;8.636;2022-09-01T01:30:12;100663.88;;;19.36;79.18
10060;BME280;5069;49.306;8.636;2022-09-01T01:33:14;100658.53;;;19.36;80.05
10060;BME280;5069;49.306;8.636;2022-09-01T01:36:26;100658.09;;;19.30;79.94
10060;BME280;5069;49.306;8.636;2022-09-01T01:39:37;100662.78;;;19.26;80.60
10060;BME280;5069;49.306;8.636;2022-09-01T01:42:46;100661.06;;;19.25;79.77
10060;BME280;5069;49.306;8.636;2022-09-01T01:45:50;100664.50;;;19.27;79.62
10060;BME280;5069;49.306;8.636;2022-09-01T01:48:57;100665.91;;;19.33;78.43
10060;BME280;5069;49.306;8.636;2022-09-01T01:51:59;100666.13;;;19.30;78.90
10060;BME280;5069;49.306;8.636;2022-09-01T01:55:05;100669.66;;;19.30;79.67
10060;BME280;5069;49.306;8.636;2022-09-01T01:58:20;100660.88;;;19.28;78.61
10060;BME280;5069;49.306;8.636;2022-09-01T02:01:25;100675.69;;;19.20;79.62
10060;BME280;5069;49.306;8.636;2022-09-01T02:04:31;100666.81;;;19.19;79.79
10060;BME280;5069;49.306;8.636;2022-09-01T02:07:38;100671.19;;;19.20;79.04
10060;BME280;5069;49.306;8.636;2022-09-01T02:10:46;100667.00;;;19.16;79.82
10060;BME280;5069;49.306;8.636;2022-09-01T02:13:48;100677.69;;;19.16;79.66
10060;BME280;5069;49.306;8.636;2022-09-01T02:16:50;100675.97;;;19.15;79.91
10060;BME280;5069;49.306;8.636;2022-09-01T02:19:52;100674.47;;;19.11;80.55
10060;BME280;5069;49.306;8.636;2022-09-01T02:22:58;100668.91;;;19.14;80.08
10060;BME280;5069;49.306;8.636;2022-09-01T02:26:11;100670.28;;;19.07;80.25
10060;BME280;5069;49.306;8.636;2022-09-01T02:29:22;100679.34;;;19.05;80.70
10060;BME280;5069;49.306;8.636;2022-09-01T02:32:29;100671.72;;;18.98;81.48
10060;BME280;5069;49.306;8.636;2022-09-01T02:35:30;100669.16;;;18.83;82.21
10060;BME280;5069;49.306;8.636;2022-09-01T02:38:38;100676.41;;;18.81;82.54
10060;BME280;5069;49.306;8.636;2022-09-01T02:41:47;100665.56;;;18.84;82.20
10060;BME280;5069;49.306;8.636;2022-09-01T02:44:53;100672.78;;;18.82;82.95
10060;BME280;5069;49.306;8.636;2022-09-01T02:47:56;100674.69;;;18.80;83.26
10060;BME280;5069;49.306;8.636;2022-09-01T02:50:59;100681.38;;;18.87;82.85
10060;BME280;5069;49.306;8.636;2022-09-01T02:54:02;100677.66;;;18.89;83.23
10060;BME280;5069;49.306;8.636;2022-09-01T02:57:06;100676.59;;;18.92;82.86
10060;BME280;5069;49.306;8.636;2022-09-01T03:00:09;100678.41;;;18.91;82.63
10060;BME280;5069;49.306;8.636;2022-09-01T03:03:24;100682.72;;;18.94;82.02
10060;BME280;5069;49.306;8.636;2022-09-01T03:06:27;100678.53;;;18.90;82.60
10060;BME280;5069;49.306;8.636;2022-09-01T03:09:29;100682.31;;;18.86;81.96
10060;BME280;5069;49.306;8.636;2022-09-01T03:12:32;100678.22;;;18.80;83.28
10060;BME280;5069;49.306;8.636;2022-09-01T03:15:35;100688.16;;;18.78;83.55
10060;BME280;5069;49.306;8.636;2022-09-01T03:18:38;100683.69;;;18.79;83.48
10060;BME280;5069;49.306;8.636;2022-09-01T03:21:43;100685.38;;;18.80;83.23
10060;BME280;5069;49.306;8.636;2022-09-01T03:24:48;100678.34;;;18.79;83.72
10060;BME280;5069;49.306;8.636;2022-09-01T03:27:51;100683.69;;;18.79;83.70
10060;BME280;5069;49.306;8.636;2022-09-01T03:30:54;100684.63;;;18.78;83.81
10060;BME280;5069;49.306;8.636;2022-09-01T03:33:56;100691.00;;;18.75;84.41
10060;BME280;5069;49.306;8.636;2022-09-01T03:37:03;100686.81;;;18.71;84.35
10060;BME280;5069;49.306;8.636;2022-09-01T03:40:09;100680.84;;;18.68;84.32
10060;BME280;5069;49.306;8.636;2022-09-01T03:43:10;100677.38;;;18.66;84.35
10060;BME280;5069;49.306;8.636;2022-09-01T03:46:16;100680.06;;;18.66;84.06
10060;BME280;5069;49.306;8.636;2022-09-01T03:49:22;100680.44;;;18.60;84.53
10060;BME280;5069;49.306;8.636;2022-09-01T03:52:30;100686.50;;;18.47;85.45
10060;BME280;5069;49.306;8.636;2022-09-01T03:55:33;100682.09;;;18.46;84.99
10060;BME280;5069;49.306;8.636;2022-09-01T03:58:35;100683.06;;;18.45;84.92
10060;BME280;5069;49.306;8.636;2022-09-01T04:01:37;100678.69;;;18.44;84.98
10060;BME280;5069;49.306;8.636;2022-09-01T04:04:42;100676.97;;;18.43;85.98
10060;BME280;5069;49.306;8.636;2022-09-01T04:07:43;100679.81;;;18.40;86.20
10060;BME280;5069;49.306;8.636;2022-09-01T04:10:49;100677.91;;;18.42;85.89
10060;BME280;5069;49.306;8.636;2022-09-01T04:13:55;100678.00;;;18.41;85.84
10060;BME280;5069;49.306;8.636;2022-09-01T04:16:56;100681.75;;;18.38;86.08
10060;BME280;5069;49.306;8.636;2022-09-01T04:20:16;100679.94;;;18.39;86.03
10060;BME280;5069;49.306;8.636;2022-09-01T04:23:30;100684.56;;;18.35;85.76
10060;BME280;5069;49.306;8.636;2022-09-01T04:26:40;100677.91;;;18.28;85.91
10060;BME280;5069;49.306;8.636;2022-09-01T04:29:42;100683.44;;;18.25;86.66
10060;BME280;5069;49.306;8.636;2022-09-01T04:32:46;100683.63;;;18.22;87.11
10060;BME280;5069;49.306;8.636;2022-09-01T04:35:48;100683.63;;;18.22;87.47
10060;BME280;5069;49.306;8.636;2022-09-01T04:38:56;100682.06;;;18.18;87.31
10060;BME280;5069;49.306;8.636;2022-09-01T04:41:59;100690.84;;;18.20;87.29
10060;BME280;5069;49.306;8.636;2022-09-01T04:45:04;100691.88;;;18.17;87.58
10060;BME280;5069;49.306;8.636;2022-09-01T04:48:15;100685.69;;;18.17;88.61
10060;BME280;5069;49.306;8.636;2022-09-01T04:51:16;100692.00;;;18.16;88.14
10060;BME280;5069;49.306;8.636;2022-09-01T04:54:28;100685.69;;;18.17;88.25
10060;BME280;5069;49.306;8.636;2022-09-01T04:57:32;100686.75;;;18.14;88.30
10060;BME280;5069;49.306;8.636;2022-09-01T05:00:34;100685.81;;;18.15;88.31
10060;BME280;5069;49.306;8.636;2022-09-01T05:03:35;100686.75;;;18.14;89.05
10060;BME280;5069;49.306;8.636;2022-09-01T05:06:49;100679.03;;;18.10;88.71
10060;BME280;5069;49.306;8.636;2022-09-01T05:09:53;100686.75;;;18.14;90.11
10060;BME280;5069;49.306;8.636;2022-09-01T05:13:16;100684.38;;;18.10;88.95
10060;BME280;5069;49.306;8.636;2022-09-01T05:16:20;100687.97;;;18.09;89.59
10060;BME280;5069;49.306;8.636;2022-09-01T05:19:29;100687.47;;;18.02;89.97
10060;BME280;5069;49.306;8.636;2022-09-01T05:22:33;100687.41;;;18.04;90.55
10060;BME280;5069;49.306;8.636;2022-09-01T05:25:41;100690.56;;;18.10;90.17
10060;BME280;5069;49.306;8.636;2022-09-01T05:28:46;100681.50;;;18.13;89.69
10060;BME280;5069;49.306;8.636;2022-09-01T05:31:48;100688.47;;;18.15;89.37
10060;BME280;5069;49.306;8.636;2022-09-01T05:34:52;100694.66;;;18.16;89.07
10060;BME280;5069;49.306;8.636;2022-09-01T05:37:54;100696.19;;;18.20;89.40
10060;BME280;5069;49.306;8.636;2022-09-01T05:41:01;100695.25;;;18.21;88.97
10060;BME280;5069;49.306;8.636;2022-09-01T05:44:03;100696.78;;;18.25;89.13
10060;BME280;5069;49.306;8.636;2022-09-01T05:47:09;100700.59;;;18.35;88.84
10060;BME280;5069;49.306;8.636;2022-09-01T05:50:22;100705.28;;;18.46;88.60
10060;BME280;5069;49.306;8.636;2022-09-01T05:53:25;100700.28;;;18.55;87.38
10060;BME280;5069;49.306;8.636;2022-09-01T05:56:30;100708.09;;;18.58;86.77
10060;BME280;5069;49.306;8.636;2022-09-01T05:59:32;100717.59;;;18.48;87.25
10060;BME280;5069;49.306;8.636;2022-09-01T06:02:49;100715.69;;;18.50;87.49
10060;BME280;5069;49.306;8.636;2022-09-01T06:05:54;100708.94;;;18.59;88.40
10060;BME280;5069;49.306;8.636;2022-09-01T06:08:57;100709.72;;;18.75;87.82
10060;BME280;5069;49.306;8.636;2022-09-01T06:12:00;100710.38;;;18.93;86.63
10060;BME280;5069;49.306;8.636;2022-09-01T06:15:02;100717.81;;;19.02;86.19
10060;BME280;5069;49.306;8.636;2022-09-01T06:18:06;100708.03;;;19.15;86.51
10060;BME280;5069;49.306;8.636;2022-09-01T06:21:13;100709.75;;;19.30;85.00
10060;BME280;5069;49.306;8.636;2022-09-01T06:24:16;100713.25;;;19.31;83.98
10060;BME280;5069;49.306;8.636;2022-09-01T06:27:18;100711.25;;;19.34;82.76
10060;BME280;5069;49.306;8.636;2022-09-01T06:30:20;100708.03;;;19.29;83.23
10060;BME280;5069;49.306;8.636;2022-09-01T06:33:33;100714.72;;;19.22;83.49
10060;BME280;5069;49.306;8.636;2022-09-01T06:36:37;100714.50;;;19.25;83.97
10060;BME280;5069;49.306;8.636;2022-09-01T06:39:41;100713.16;;;19.32;84.29
10060;BME280;5069;49.306;8.636;2022-09-01T06:42:48;100710.84;;;19.55;82.49
10060;BME280;5069;49.306;8.636;2022-09-01T06:45:51;100708.38;;;19.52;83.07
10060;BME280;5069;49.306;8.636;2022-09-01T06:48:57;100715.72;;;19.48;83.88
10060;BME280;5069;49.306;8.636;2022-09-01T06:52:01;100723.66;;;19.50;84.49
10060;BME280;5069;49.306;8.636;2022-09-01T06:55:03;100724.97;;;19.42;85.32
10060;BME280;5069;49.306;8.636;2022-09-01T06:58:25;100722.06;;;19.47;85.14
10060;BME280;5069;49.306;8.636;2022-09-01T07:01:27;100725.38;;;19.51;85.23
10060;BME280;5069;49.306;8.636;2022-09-01T07:04:29;100731.97;;;19.45;86.09
10060;BME280;5069;49.306;8.636;2022-09-01T07:07:36;100736.28;;;19.48;85.15
10060;BME280;5069;49.306;8.636;2022-09-01T07:11:33;100744.19;;;19.49;86.05
10060;BME280;5069;49.306;8.636;2022-09-01T07:14:55;100751.72;;;19.57;87.24
10060;BME280;5069;49.306;8.636;2022-09-01T07:18:19;100753.06;;;19.76;85.42
10060;BME280;5069;49.306;8.636;2022-09-01T07:21:22;100749.72;;;19.87;84.87
10060;BME280;5069;49.306;8.636;2022-09-01T07:24:45;100747.72;;;20.03;83.55
10060;BME280;5069;49.306;8.636;2022-09-01T07:28:33;100743.97;;;20.06;83.69
10060;BME280;5069;49.306;8.636;2022-09-01T07:31:40;100750.84;;;20.10;82.79
10060;BME280;5069;49.306;8.636;2022-09-01T07:35:04;100751.16;;;20.18;81.36
10060;BME280;5069;49.306;8.636;2022-09-01T07:38:12;100753.41;;;20.11;82.23
10060;BME280;5069;49.306;8.636;2022-09-01T07:41:34;100758.78;;;20.24;82.14
10060;BME280;5069;49.306;8.636;2022-09-01T07:45:21;100757.06;;;20.23;81.40
10060;BME280;5069;49.306;8.636;2022-09-01T07:48:37;100759.44;;;20.15;81.36
10060;BME280;5069;49.306;8.636;2022-09-01T07:51:59;100765.41;;;20.18;80.39
10060;BME280;5069;49.306;8.636;2022-09-01T07:55:05;100760.28;;;20.15;80.83
10060;BME280;5069;49.306;8.636;2022-09-01T07:58:09;100765.63;;;20.15;80.45
10060;BME280;5069;49.306;8.636;2022-09-01T08:01:14;100759.75;;;20.23;80.09
10060;BME280;5069;49.306;8.636;2022-09-01T08:04:20;100760.41;;;20.27;79.50
10060;BME280;5069;49.306;8.636;2022-09-01T08:07:25;100762.50;;;20.36;79.14
10060;BME280;5069;49.306;8.636;2022-09-01T08:10:27;100766.78;;;20.38;79.66
10060;BME280;5069;49.306;8.636;2022-09-01T08:13:30;100769.38;;;20.52;78.85
10060;BME280;5069;49.306;8.636;2022-09-01T08:16:32;100763.38;;;20.49;78.66
10060;BME280;5069;49.306;8.636;2022-09-01T08:19:52;100768.50;;;20.52;77.45
10060;BME280;5069;49.306;8.636;2022-09-01T08:23:11;100766.59;;;20.54;78.79
10060;BME280;5069;49.306;8.636;2022-09-01T08:26:16;100768.09;;;20.83;76.67
10060;BME280;5069;49.306;8.636;2022-09-01T08:29:17;100760.59;;;20.88;76.06
10060;BME280;5069;49.306;8.636;2022-09-01T08:32:19;100773.56;;;20.82;75.83
10060;BME280;5069;49.306;8.636;2022-09-01T08:35:22;100763.78;;;20.68;75.58
10060;BME280;5069;49.306;8.636;2022-09-01T08:38:23;100763.69;;;20.70;76.54
10060;BME280;5069;49.306;8.636;2022-09-01T08:41:56;100774.19;;;20.85;76.29
10060;BME280;5069;49.306;8.636;2022-09-01T08:45:20;100770.03;;;20.81;75.32
10060;BME280;5069;49.306;8.636;2022-09-01T08:48:42;100772.03;;;20.90;74.99
10060;BME280;5069;49.306;8.636;2022-09-01T08:52:35;100769.03;;;21.08;73.76
10060;BME280;5069;49.306;8.636;2022-09-01T08:55:42;100766.75;;;21.14;72.83
10060;BME280;5069;49.306;8.636;2022-09-01T08:58:47;100761.16;;;21.42;71.34
10060;BME280;5069;49.306;8.636;2022-09-01T09:02:26;100775.09;;;21.48;71.28
10060;BME280;5069;49.306;8.636;2022-09-01T09:09:00;100760.47;;;21.64;68.60
10060;BME280;5069;49.306;8.636;2022-09-01T09:12:15;100754.88;;;21.67;70.04
10060;BME280;5069;49.306;8.636;2022-09-01T09:15:34;100758.69;;;21.76;68.35
10060;BME280;5069;49.306;8.636;2022-09-01T09:18:48;100760.97;;;21.69;67.80
10060;BME280;5069;49.306;8.636;2022-09-01T09:22:00;100756.84;;;21.76;67.99
10060;BME280;5069;49.306;8.636;2022-09-01T09:25:11;100755.44;;;21.83;67.10
10060;BME280;5069;49.306;8.636;2022-09-01T09:28:20;100756.59;;;21.68;67.78
10060;BME280;5069;49.306;8.636;2022-09-01T09:31:29;100750.81;;;21.62;68.09
10060;BME280;5069;49.306;8.636;2022-09-01T09:34:36;100757.50;;;21.43;68.90
10060;BME280;5069;49.306;8.636;2022-09-01T09:37:38;100750.91;;;21.60;69.23
10060;BME280;5069;49.306;8.636;2022-09-01T09:40:55;100750.56;;;21.65;68.60
10060;BME280;5069;49.306;8.636;2022-09-01T09:44:25;100745.66;;;21.59;67.48
10060;BME280;5069;49.306;8.636;2022-09-01T09:47:42;100746.72;;;21.69;68.48
10060;BME280;5069;49.306;8.636;2022-09-01T09:50:45;100746.88;;;21.78;68.68
10060;BME280;5069;49.306;8.636;2022-09-01T09:53:49;100742.31;;;21.92;68.01
10060;BME280;5069;49.306;8.636;2022-09-01T10:00:30;100733.75;;;22.21;65.51
10060;BME280;5069;49.306;8.636;2022-09-01T10:03:38;100732.97;;;22.32;65.90
10060;BME280;5069;49.306;8.636;2022-09-01T10:06:43;100733.47;;;22.37;65.99
10060;BME280;5069;49.306;8.636;2022-09-01T10:09:48;100728.34;;;22.56;64.02
10060;BME280;5069;49.306;8.636;2022-09-01T10:12:53;100727.03;;;22.62;63.31
10060;BME280;5069;49.306;8.636;2022-09-01T10:15:59;100723.13;;;22.66;64.16
10060;BME280;5069;49.306;8.636;2022-09-01T10:19:10;100715.13;;;22.77;62.86
10060;BME280;5069;49.306;8.636;2022-09-01T10:22:13;100714.13;;;23.12;62.03
10060;BME280;5069;49.306;8.636;2022-09-01T10:25:21;100711.19;;;23.03;59.69
10060;BME280;5069;49.306;8.636;2022-09-01T10:28:23;100719.84;;;22.96;59.22
10060;BME280;5069;49.306;8.636;2022-09-01T10:31:26;100719.16;;;22.83;59.08
10060;BME280;5069;49.306;8.636;2022-09-01T10:34:35;100715.22;;;22.87;59.73
10060;BME280;5069;49.306;8.636;2022-09-01T10:37:38;100707.53;;;22.82;59.21
10060;BME280;5069;49.306;8.636;2022-09-01T10:40:44;100708.63;;;22.91;59.92
10060;BME280;5069;49.306;8.636;2022-09-01T10:43:50;100707.63;;;23.14;59.53
10060;BME280;5069;49.306;8.636;2022-09-01T10:46:52;100716.03;;;23.32;57.13
10060;BME280;5069;49.306;8.636;2022-09-01T10:50:28;100702.38;;;23.46;58.08
10060;BME280;5069;49.306;8.636;2022-09-01T10:53:38;100694.28;;;23.78;56.80
10060;BME280;5069;49.306;8.636;2022-09-01T10:56:49;100696.91;;;23.68;55.18
10060;BME280;5069;49.306;8.636;2022-09-01T10:59:54;100693.72;;;23.74;55.69
10060;BME280;5069;49.306;8.636;2022-09-01T11:13:33;100676.34;;;24.41;53.37
10060;BME280;5069;49.306;8.636;2022-09-01T11:16:38;100681.94;;;24.49;52.89
10060;BME280;5069;49.306;8.636;2022-09-01T11:26:44;100666.78;;;24.88;52.54
10060;BME280;5069;49.306;8.636;2022-09-01T11:29:49;100663.78;;;25.12;50.78
10060;BME280;5069;49.306;8.636;2022-09-01T11:33:00;100659.38;;;25.10;49.69
10060;BME280;5069;49.306;8.636;2022-09-01T11:36:06;100656.78;;;24.69;50.50
10060;BME280;5069;49.306;8.636;2022-09-01T11:42:31;100666.16;;;24.75;51.43
10060;BME280;5069;49.306;8.636;2022-09-01T11:45:48;100650.63;;;24.88;51.39
10060;BME280;5069;49.306;8.636;2022-09-01T11:48:51;100648.28;;;25.14;51.04
10060;BME280;5069;49.306;8.636;2022-09-01T11:51:54;100635.09;;;25.30;48.46
10060;BME280;5069;49.306;8.636;2022-09-01T11:54:56;100651.91;;;25.43;49.16
10060;BME280;5069;49.306;8.636;2022-09-01T11:57:59;100648.22;;;25.53;49.27
10060;BME280;5069;49.306;8.636;2022-09-01T12:04:23;100640.72;;;25.67;47.63
10060;BME280;5069;49.306;8.636;2022-09-01T12:07:39;100638.59;;;25.80;47.75
10060;BME280;5069;49.306;8.636;2022-09-01T12:10:43;100639.00;;;25.75;47.07
10060;BME280;5069;49.306;8.636;2022-09-01T12:14:03;100639.00;;;25.95;45.92
10060;BME280;5069;49.306;8.636;2022-09-01T12:17:10;100628.50;;;25.91;45.79
10060;BME280;5069;49.306;8.636;2022-09-01T12:20:24;100625.78;;;25.91;44.85
10060;BME280;5069;49.306;8.636;2022-09-01T12:23:35;100629.44;;;26.10;45.58
10060;BME280;5069;49.306;8.636;2022-09-01T12:26:40;100625.56;;;26.22;45.09
10060;BME280;5069;49.306;8.636;2022-09-01T12:29:42;100622.59;;;26.15;46.26
10060;BME280;5069;49.306;8.636;2022-09-01T12:32:45;100623.75;;;26.13;45.68
10060;BME280;5069;49.306;8.636;2022-09-01T12:35:47;100623.22;;;26.00;46.24
10060;BME280;5069;49.306;8.636;2022-09-01T12:38:50;100624.66;;;25.65;46.72
10060;BME280;5069;49.306;8.636;2022-09-01T12:42:28;100612.88;;;25.57;46.59
10060;BME280;5069;49.306;8.636;2022-09-01T12:45:46;100613.03;;;25.74;46.21
10060;BME280;5069;49.306;8.636;2022-09-01T12:48:48;100617.25;;;25.77;46.23
10060;BME280;5069;49.306;8.636;2022-09-01T12:52:25;100613.22;;;26.10;45.48
10060;BME280;5069;49.306;8.636;2022-09-01T12:55:33;100616.34;;;26.15;45.65
10060;BME280;5069;49.306;8.636;2022-09-01T12:59:06;100599.84;;;26.18;43.90
10060;BME280;5069;49.306;8.636;2022-09-01T13:02:33;100608.81;;;26.18;44.89
10060;BME280;5069;49.306;8.636;2022-09-01T13:05:39;100599.84;;;26.18;45.48
10060;BME280;5069;49.306;8.636;2022-09-01T13:08:43;100600.16;;;26.24;43.43
10060;BME280;5069;49.306;8.636;2022-09-01T13:11:45;100596.75;;;26.13;44.41
10060;BME280;5069;49.306;8.636;2022-09-01T13:15:08;100595.59;;;26.25;43.67
10060;BME280;5069;49.306;8.636;2022-09-01T13:18:09;100597.22;;;26.45;43.27
10060;BME280;5069;49.306;8.636;2022-09-01T13:21:12;100583.78;;;26.63;42.64
10060;BME280;5069;49.306;8.636;2022-09-01T13:24:13;100582.19;;;26.70;43.20
10060;BME280;5069;49.306;8.636;2022-09-01T13:27:15;100591.44;;;26.67;42.84
10060;BME280;5069;49.306;8.636;2022-09-01T13:30:24;100581.53;;;26.58;42.51
10060;BME280;5069;49.306;8.636;2022-09-01T13:33:28;100583.22;;;26.13;43.55
10060;BME280;5069;49.306;8.636;2022-09-01T13:36:50;100573.53;;;26.20;43.53
10060;BME280;5069;49.306;8.636;2022-09-01T13:39:53;100573.28;;;26.50;43.03
10060;BME280;5069;49.306;8.636;2022-09-01T13:42:54;100572.22;;;26.70;42.12
10060;BME280;5069;49.306;8.636;2022-09-01T13:45:56;100561.69;;;26.95;42.16
10060;BME280;5069;49.306;8.636;2022-09-01T13:48:59;100571.00;;;27.10;41.53
10060;BME280;5069;49.306;8.636;2022-09-01T13:52:20;100566.97;;;27.32;42.08
10060;BME280;5069;49.306;8.636;2022-09-01T13:55:25;100556.06;;;26.88;42.67
10060;BME280;5069;49.306;8.636;2022-09-01T13:58:26;100563.94;;;26.45;43.28
10060;BME280;5069;49.306;8.636;2022-09-01T14:01:28;100560.19;;;26.55;42.62
10060;BME280;5069;49.306;8.636;2022-09-01T14:04:29;100562.03;;;26.82;42.61
10060;BME280;5069;49.306;8.636;2022-09-01T14:07:31;100554.16;;;27.16;41.80
10060;BME280;5069;49.306;8.636;2022-09-01T14:10:40;100542.63;;;27.14;41.66
10060;BME280;5069;49.306;8.636;2022-09-01T14:13:41;100552.06;;;26.83;42.36
10060;BME280;5069;49.306;8.636;2022-09-01T14:16:45;100542.59;;;26.69;42.60
10060;BME280;5069;49.306;8.636;2022-09-01T14:19:50;100551.97;;;26.74;42.67
10060;BME280;5069;49.306;8.636;2022-09-01T14:22:52;100543.13;;;27.00;41.36
10060;BME280;5069;49.306;8.636;2022-09-01T14:25:53;100548.91;;;26.87;41.29
10060;BME280;5069;49.306;8.636;2022-09-01T14:28:54;100546.16;;;26.69;41.67
10060;BME280;5069;49.306;8.636;2022-09-01T14:31:56;100544.28;;;26.52;41.99
10060;BME280;5069;49.306;8.636;2022-09-01T14:34:58;100542.63;;;26.42;42.44
10060;BME280;5069;49.306;8.636;2022-09-01T14:38:01;100538.66;;;26.91;42.12
10060;BME280;5069;49.306;8.636;2022-09-01T14:41:03;100524.75;;;27.39;40.76
10060;BME280;5069;49.306;8.636;2022-09-01T14:44:04;100521.97;;;27.13;40.10
10060;BME280;5069;49.306;8.636;2022-09-01T14:47:06;100531.13;;;26.85;40.45
10060;BME280;5069;49.306;8.636;2022-09-01T14:50:14;100524.38;;;26.98;40.68
10060;BME280;5069;49.306;8.636;2022-09-01T14:53:22;100522.19;;;27.20;39.50
10060;BME280;5069;49.306;8.636;2022-09-01T14:56:24;100521.56;;;26.90;40.62
10060;BME280;5069;49.306;8.636;2022-09-01T14:59:26;100513.56;;;26.71;40.64
10060;BME280;5069;49.306;8.636;2022-09-01T15:02:27;100513.88;;;26.41;41.22
10060;BME280;5069;49.306;8.636;2022-09-01T15:05:29;100513.50;;;26.81;41.08
10060;BME280;5069;49.306;8.636;2022-09-01T15:08:41;100508.75;;;27.28;39.87
10060;BME280;5069;49.306;8.636;2022-09-01T15:11:42;100505.28;;;27.79;39.28
10060;BME280;5069;49.306;8.636;2022-09-01T15:14:45;100504.06;;;28.25;38.76
10060;BME280;5069;49.306;8.636;2022-09-01T15:17:47;100492.72;;;28.38;37.51
10060;BME280;5069;49.306;8.636;2022-09-01T15:20:48;100490.31;;;28.26;38.05
10060;BME280;5069;49.306;8.636;2022-09-01T15:23:51;100500.00;;;28.29;37.23
10060;BME280;5069;49.306;8.636;2022-09-01T15:26:54;100496.75;;;28.25;37.08
10060;BME280;5069;49.306;8.636;2022-09-01T15:29:55;100492.38;;;27.73;36.57
10060;BME280;5069;49.306;8.636;2022-09-01T15:32:58;100488.44;;;27.93;37.05
10060;BME280;5069;49.306;8.636;2022-09-01T15:35:59;100491.31;;;28.25;37.29
10060;BME280;5069;49.306;8.636;2022-09-01T15:39:01;100496.78;;;28.33;37.89
10060;BME280;5069;49.306;8.636;2022-09-01T15:42:02;100489.75;;;27.89;39.24
10060;BME280;5069;49.306;8.636;2022-09-01T15:45:13;100498.78;;;27.28;39.76
10060;BME280;5069;49.306;8.636;2022-09-01T15:48:15;100495.94;;;26.85;41.08
10060;BME280;5069;49.306;8.636;2022-09-01T15:54:24;100499.56;;;26.30;41.81
10060;BME280;5069;49.306;8.636;2022-09-01T15:57:31;100498.13;;;25.89;43.08
10060;BME280;5069;49.306;8.636;2022-09-01T16:00:32;100492.91;;;25.78;43.28
10060;BME280;5069;49.306;8.636;2022-09-01T16:03:34;100499.81;;;26.00;42.97
10060;BME280;5069;49.306;8.636;2022-09-01T16:06:37;100496.59;;;26.24;42.16
10060;BME280;5069;49.306;8.636;2022-09-01T16:09:38;100495.59;;;26.52;41.83
10060;BME280;5069;49.306;8.636;2022-09-01T16:12:42;100493.47;;;26.73;41.66
10060;BME280;5069;49.306;8.636;2022-09-01T16:15:50;100493.69;;;26.62;41.99
10060;BME280;5069;49.306;8.636;2022-09-01T16:19:01;100491.47;;;26.76;41.51
10060;BME280;5069;49.306;8.636;2022-09-01T16:25:23;100483.25;;;26.67;41.91
10060;BME280;5069;49.306;8.636;2022-09-01T16:28:28;100489.06;;;26.72;41.58
10060;BME280;5069;49.306;8.636;2022-09-01T16:31:31;100484.34;;;26.57;42.20
10060;BME280;5069;49.306;8.636;2022-09-01T16:34:33;100472.66;;;26.56;42.37
10060;BME280;5069;49.306;8.636;2022-09-01T16:37:51;100481.69;;;26.47;41.80
10060;BME280;5069;49.306;8.636;2022-09-01T16:44:31;100477.06;;;26.03;43.15
10060;BME280;5069;49.306;8.636;2022-09-01T16:51:13;100473.59;;;25.73;42.68
10060;BME280;5069;49.306;8.636;2022-09-01T16:54:44;100474.31;;;25.66;43.57
10060;BME280;5069;49.306;8.636;2022-09-01T16:58:02;100474.34;;;25.56;43.53
10060;BME280;5069;49.306;8.636;2022-09-01T17:04:45;100470.38;;;25.31;44.18
10060;BME280;5069;49.306;8.636;2022-09-01T17:08:23;100472.53;;;25.28;44.31
10060;BME280;5069;49.306;8.636;2022-09-01T17:11:35;100472.78;;;25.25;44.33
10060;BME280;5069;49.306;8.636;2022-09-01T17:14:44;100477.34;;;25.15;44.65
10060;BME280;5069;49.306;8.636;2022-09-01T17:17:54;100478.78;;;25.09;44.74
10060;BME280;5069;49.306;8.636;2022-09-01T17:21:10;100484.31;;;25.07;45.02
10060;BME280;5069;49.306;8.636;2022-09-01T17:30:35;100474.94;;;24.92;44.73